Terminal Aerodrome Forecast
Issued by NWS Newport/Morehead City, NC

Home | Current Version | Previous Version | Graphics & Text | Print | Product List | Glossary On
Versions: 1 2 3 4 5 6 7 8 9 10 11 12 13 14 15 16 17 18
000
FTUS42 KMHX 201347 AAB
TAFEWN
TAF AMD
KEWN 201347Z 2014/2112 00000KT 4SM BR BKN005
     FM201430 VRB05KT P6SM SCT040
     FM210800 00000KT 2SM BR SCT005=

USA.gov is the U.S. government's official web portal to all federal, state and local government web resources and services.